College Springs, Iowa
Current Conditions -  °F | °C
As of 8:35 AM on Wednesday 22 Oct 2014 (Local Time) from KICL Reporting Station
Few Clouds Few Clouds  
Wind Chill: 52°   Ceiling: Unl
Heat Index: 52°   Visibility: 10mi
Dew Point: 45°   Wind: 9mph
Humidity: 76%   Direction: 140°SE
Pressure: 30.18"   Gusts: NA
Location:  40.62°N, 95.12°W
Report Text: KICL 221335Z AUTO 14008KT 10SM FEW070 11/07 A3018 RMK AO2
Loading
Personal Weather Stations






























Interactive Weather Map
Tropical Storm Tracking
New forecast layout! Learn more

10-Day Weather Forecast

Advertisements
Track Severe Weather on mobile